Date,TemperatureHighF,TemperatureAvgF,TemperatureLowF,DewpointHighF,DewpointAvgF,DewpointLowF,HumidityHigh,HumidityAvg,HumidityLow,PressureMaxIn,PressureMinIn,WindSpeedMaxMPH,WindSpeedAvgMPH,GustSpeedMaxMPH,PrecipitationSumIn
2013-4-1,55.7,48.6,39.8,48.6,36.3,27.6,92,63,42,30.16,29.86,12,3,12,0.00
2013-4-2,45.9,41.1,35.7,29.3,24.3,18.9,70,52,35,30.29,30.15,7,1,7,0.00
2013-4-3,52.8,44.1,33.3,27.5,24.5,20.1,67,47,32,30.32,30.16,10,2,10,0.00
2013-4-4,56.2,47.7,41.5,39.6,30.3,24.3,84,52,38,30.16,29.97,7,1,7,0.00
2013-4-5,71.3,54.3,36.2,40.8,37.5,31.9,95,59,27,30.11,30.00,15,2,15,0.00
2013-4-6,75.5,62.1,49.6,45.4,41.1,37.6,65,48,30,30.04,29.82,18,5,18,0.00
2013-4-7,73.7,65.9,60.6,58.8,53.0,44.3,78,64,51,29.93,29.85,21,7,21,0.00
2013-4-8,76.3,66.7,59.6,60.7,56.1,51.3,79,69,54,29.88,29.79,22,6,22,0.00
2013-4-9,79.9,71.5,62.6,65.9,61.9,55.3,81,72,61,29.95,29.80,15,5,15,0.00
2013-4-10,83.3,75.4,63.9,69.6,65.3,61.3,94,72,57,29.86,29.62,25,6,25,0.66
2013-4-11,65.4,54.5,44.4,64.2,52.6,36.8,97,94,74,29.74,29.54,21,6,21,0.97
2013-4-12,56.4,44.5,37.5,44.3,37.9,34.3,91,78,59,29.84,29.73,24,6,24,0.00
2013-4-14,75.8,69.4,60.7,55.9,50.9,47.0,71,53,39,29.78,29.70,17,7,17,0.00
2013-4-15,80.6,69.0,59.4,64.3,57.9,51.1,82,69,51,29.88,29.76,14,4,14,0.00
2013-4-16,87.0,72.9,63.4,71.5,65.5,59.6,92,79,56,30.00,29.83,18,4,18,0.00
2013-4-17,84.1,72.8,58.9,73.8,65.7,56.9,95,79,62,30.02,29.76,17,3,17,0.02
2013-4-18,78.5,69.6,44.2,67.3,61.9,42.6,95,78,57,29.77,29.56,24,8,24,1.55
2013-4-19,53.4,45.0,41.2,42.4,35.5,31.6,94,70,51,30.06,29.70,23,9,23,0.05
2013-4-20,62.9,49.1,34.4,41.6,35.9,31.8,95,64,36,30.28,30.06,12,1,12,0.00
2013-4-21,65.4,53.7,41.3,41.4,36.0,33.0,73,53,32,30.37,30.20,5,1,5,0.00
2013-4-22,74.9,60.4,43.4,51.6,43.8,34.7,78,56,36,30.22,29.98,13,2,13,0.00
2013-4-23,73.7,64.4,49.6,61.5,54.7,46.6,90,71,59,30.01,29.79,20,4,20,0.08
2013-4-24,51.4,44.8,39.1,46.4,39.8,36.2,94,83,59,30.25,29.87,22,4,22,0.21
2013-4-25,68.3,51.6,36.3,45.7,40.6,34.3,94,70,36,30.34,30.23,13,2,13,0.00
2013-4-26,51.9,50.8,49.2,49.5,46.0,41.0,95,84,69,30.39,30.21,10,1,10,0.46
2013-4-27,60.5,54.8,49.7,59.5,53.8,48.6,97,96,95,30.26,29.86,6,1,6,0.50
2013-4-28,61.3,56.3,53.2,57.4,54.2,52.3,97,93,82,29.92,29.85,13,4,13,0.01
2013-4-29,76.5,62.1,48.9,62.5,55.4,47.8,98,81,56,29.97,29.83,12,2,12,0.00
2013-4-30,83.8,70.0,57.1,63.6,57.3,53.4,88,67,41,29.92,29.84,10,2,10,0.00